sensor_id;sensor_type;location;lat;lon;timestamp;pressure;altitude;pressure_sealevel;temperature;humidity
12073;BME280;6098;49.004;8.372;2023-12-07T00:05:21;100812.68;;;5.47;90.07
12073;BME280;6098;49.004;8.372;2023-12-07T00:20:13;100821.02;;;5.48;88.81
12073;BME280;6098;49.004;8.372;2023-12-07T00:35:05;100813.19;;;5.43;88.90
12073;BME280;6098;49.004;8.372;2023-12-07T00:49:56;100828.08;;;5.42;88.12
12073;BME280;6098;49.004;8.372;2023-12-07T01:04:48;100836.85;;;5.43;87.46
12073;BME280;6098;49.004;8.372;2023-12-07T01:19:39;100859.75;;;5.31;86.53
12073;BME280;6098;49.004;8.372;2023-12-07T01:34:30;100864.60;;;5.28;87.36
12073;BME280;6098;49.004;8.372;2023-12-07T01:49:20;100867.72;;;5.22;87.71
12073;BME280;6098;49.004;8.372;2023-12-07T02:04:11;100863.39;;;5.16;87.64
12073;BME280;6098;49.004;8.372;2023-12-07T02:34:16;100863.16;;;4.94;88.22
12073;BME280;6098;49.004;8.372;2023-12-07T02:49:07;100873.73;;;4.84;89.24
12073;BME280;6098;49.004;8.372;2023-12-07T03:03:58;100863.34;;;4.69;88.85
12073;BME280;6098;49.004;8.372;2023-12-07T03:18:49;100869.20;;;4.42;88.64
12073;BME280;6098;49.004;8.372;2023-12-07T03:33:41;100876.73;;;4.25;88.77
12073;BME280;6098;49.004;8.372;2023-12-07T03:48:31;100890.39;;;4.09;89.35
12073;BME280;6098;49.004;8.372;2023-12-07T04:03:21;100887.35;;;3.99;91.33
12073;BME280;6098;49.004;8.372;2023-12-07T04:18:14;100895.72;;;3.88;91.29
12073;BME280;6098;49.004;8.372;2023-12-07T04:33:04;100900.14;;;3.67;90.86
12073;BME280;6098;49.004;8.372;2023-12-07T04:47:55;100912.41;;;3.55;91.57
12073;BME280;6098;49.004;8.372;2023-12-07T05:02:46;100912.42;;;3.37;90.45
12073;BME280;6098;49.004;8.372;2023-12-07T05:17:38;100904.59;;;3.20;90.65
12073;BME280;6098;49.004;8.372;2023-12-07T05:32:28;100902.83;;;3.10;91.91
12073;BME280;6098;49.004;8.372;2023-12-07T05:47:20;100898.93;;;3.04;92.07
12073;BME280;6098;49.004;8.372;2023-12-07T06:02:10;100903.27;;;2.95;91.08
12073;BME280;6098;49.004;8.372;2023-12-07T06:17:01;100915.48;;;2.89;91.49
12073;BME280;6098;49.004;8.372;2023-12-07T06:31:54;100908.52;;;2.85;91.40
12073;BME280;6098;49.004;8.372;2023-12-07T06:46:46;100917.23;;;2.82;90.97
12073;BME280;6098;49.004;8.372;2023-12-07T07:01:37;100908.50;;;2.75;90.32
12073;BME280;6098;49.004;8.372;2023-12-07T07:16:28;100904.55;;;2.69;91.29
12073;BME280;6098;49.004;8.372;2023-12-07T07:31:18;100927.70;;;2.81;92.02
12073;BME280;6098;49.004;8.372;2023-12-07T07:46:09;100952.56;;;2.80;90.72
12073;BME280;6098;49.004;8.372;2023-12-07T08:00:59;100955.65;;;2.92;92.26
12073;BME280;6098;49.004;8.372;2023-12-07T08:15:51;100941.69;;;3.08;92.77
12073;BME280;6098;49.004;8.372;2023-12-07T08:30:41;100911.55;;;2.73;95.02
12073;BME280;6098;49.004;8.372;2023-12-07T08:45:33;100907.22;;;3.10;95.85
12073;BME280;6098;49.004;8.372;2023-12-07T09:00:25;100894.11;;;3.30;91.81
12073;BME280;6098;49.004;8.372;2023-12-07T09:15:16;100887.52;;;3.59;89.65
12073;BME280;6098;49.004;8.372;2023-12-07T09:30:08;100876.50;;;3.82;87.04
12073;BME280;6098;49.004;8.372;2023-12-07T09:44:59;100871.61;;;4.05;85.44
12073;BME280;6098;49.004;8.372;2023-12-07T09:59:50;100848.72;;;4.34;82.54
12073;BME280;6098;49.004;8.372;2023-12-07T10:14:43;100832.84;;;4.50;78.59
12073;BME280;6098;49.004;8.372;2023-12-07T10:29:37;100822.95;;;4.83;77.32
12073;BME280;6098;49.004;8.372;2023-12-07T10:44:30;100787.14;;;5.19;76.61
12073;BME280;6098;49.004;8.372;2023-12-07T10:59:23;100762.69;;;5.52;73.24
12073;BME280;6098;49.004;8.372;2023-12-07T11:14:15;100722.36;;;5.88;70.78
12073;BME280;6098;49.004;8.372;2023-12-07T11:29:07;100694.86;;;6.33;65.11
12073;BME280;6098;49.004;8.372;2023-12-07T11:43:58;100664.52;;;6.61;65.26
12073;BME280;6098;49.004;8.372;2023-12-07T11:58:49;100631.02;;;7.12;58.93
12073;BME280;6098;49.004;8.372;2023-12-07T12:13:40;100615.03;;;7.42;58.04
12073;BME280;6098;49.004;8.372;2023-12-07T12:28:32;100583.42;;;7.59;54.22
12073;BME280;6098;49.004;8.372;2023-12-07T12:43:24;100571.06;;;7.78;53.05
12073;BME280;6098;49.004;8.372;2023-12-07T12:58:15;100551.60;;;7.83;51.44
12073;BME280;6098;49.004;8.372;2023-12-07T13:13:06;100571.31;;;8.04;51.65
12073;BME280;6098;49.004;8.372;2023-12-07T13:27:57;100565.94;;;7.90;51.58
12073;BME280;6098;49.004;8.372;2023-12-07T13:42:48;100557.42;;;7.78;52.19
12073;BME280;6098;49.004;8.372;2023-12-07T13:57:38;100555.86;;;7.53;53.52
12073;BME280;6098;49.004;8.372;2023-12-07T14:12:29;100523.52;;;7.25;54.39
12073;BME280;6098;49.004;8.372;2023-12-07T14:27:19;100494.17;;;7.21;58.37
12073;BME280;6098;49.004;8.372;2023-12-07T14:42:10;100457.04;;;6.75;76.41
12073;BME280;6098;49.004;8.372;2023-12-07T14:56:59;100445.55;;;6.16;81.80
12073;BME280;6098;49.004;8.372;2023-12-07T15:11:49;100460.81;;;5.73;84.25
12073;BME280;6098;49.004;8.372;2023-12-07T15:26:43;100441.53;;;5.22;87.87
12073;BME280;6098;49.004;8.372;2023-12-07T15:41:41;100408.27;;;4.95;90.34
12073;BME280;6098;49.004;8.372;2023-12-07T15:56:31;100370.65;;;5.19;84.48
12073;BME280;6098;49.004;8.372;2023-12-07T16:11:25;100340.09;;;5.38;68.09
12073;BME280;6098;49.004;8.372;2023-12-07T16:26:18;100330.42;;;5.63;66.16
12073;BME280;6098;49.004;8.372;2023-12-07T16:41:08;100332.14;;;5.64;63.08
12073;BME280;6098;49.004;8.372;2023-12-07T16:56:00;100318.98;;;5.65;61.90
12073;BME280;6098;49.004;8.372;2023-12-07T17:10:50;100302.63;;;5.50;60.93
12073;BME280;6098;49.004;8.372;2023-12-07T17:25:41;100278.58;;;5.47;59.86
12073;BME280;6098;49.004;8.372;2023-12-07T17:40:32;100261.23;;;5.39;58.96
12073;BME280;6098;49.004;8.372;2023-12-07T17:55:23;100245.14;;;5.33;59.13
12073;BME280;6098;49.004;8.372;2023-12-07T18:10:13;100238.88;;;5.17;57.97
12073;BME280;6098;49.004;8.372;2023-12-07T18:25:02;100206.98;;;5.13;57.50
12073;BME280;6098;49.004;8.372;2023-12-07T18:39:54;100201.84;;;5.08;57.25
12073;BME280;6098;49.004;8.372;2023-12-07T18:54:44;100188.67;;;5.09;57.28
12073;BME280;6098;49.004;8.372;2023-12-07T19:09:35;100201.80;;;5.11;57.32
12073;BME280;6098;49.004;8.372;2023-12-07T19:24:27;100208.37;;;5.11;57.92
12073;BME280;6098;49.004;8.372;2023-12-07T19:39:20;100157.22;;;5.05;57.94
12073;BME280;6098;49.004;8.372;2023-12-07T19:54:11;100133.84;;;4.93;58.47
12073;BME280;6098;49.004;8.372;2023-12-07T20:09:01;100119.66;;;4.80;59.19
12073;BME280;6098;49.004;8.372;2023-12-07T20:23:54;100129.55;;;4.89;59.82
12073;BME280;6098;49.004;8.372;2023-12-07T20:38:46;100099.36;;;4.20;72.30
12073;BME280;6098;49.004;8.372;2023-12-07T20:53:38;100061.34;;;3.69;78.84
12073;BME280;6098;49.004;8.372;2023-12-07T21:08:29;100027.89;;;3.29;83.91
12073;BME280;6098;49.004;8.372;2023-12-07T21:23:19;100028.72;;;3.03;88.29
12073;BME280;6098;49.004;8.372;2023-12-07T21:38:09;99997.62;;;2.81;90.93
12073;BME280;6098;49.004;8.372;2023-12-07T21:52:59;99992.80;;;2.82;92.74
12073;BME280;6098;49.004;8.372;2023-12-07T22:07:50;99945.34;;;2.77;93.78
12073;BME280;6098;49.004;8.372;2023-12-07T22:22:42;99932.98;;;2.87;93.94
12073;BME280;6098;49.004;8.372;2023-12-07T22:37:34;99916.98;;;3.05;92.88
12073;BME280;6098;49.004;8.372;2023-12-07T22:52:25;99925.25;;;3.07;93.11
12073;BME280;6098;49.004;8.372;2023-12-07T23:07:15;99892.45;;;3.11;93.55
12073;BME280;6098;49.004;8.372;2023-12-07T23:22:06;99914.09;;;3.23;93.28
12073;BME280;6098;49.004;8.372;2023-12-07T23:36:56;99899.34;;;3.17;94.21
12073;BME280;6098;49.004;8.372;2023-12-07T23:51:47;99822.70;;;3.08;95.31
